Time;durP1;ratioP1;P1;durP2;ratioP2;P2;SDS_P1;SDS_P2;PMS_P1;PMS_P2;Temp;Humidity;BMP_temperature;BMP_pressure;BME280_temperature;BME280_humidity;BME280_pressure;Samples;Min_cycle;Max_cycle;Signal;HPM_P1;HPM_P2
2021/05/13 00:01:07;;;;;;;1.88;1.20;;;17.40;54.30;;;;;;4741465;30;20328;-81
2021/05/13 00:03:34;;;;;;;2.47;1.35;;;17.40;54.30;;;;;;4753970;30;20036;-81
2021/05/13 00:06:01;;;;;;;3.03;1.30;;;17.40;54.40;;;;;;4765524;30;20513;-82
2021/05/13 00:08:27;;;;;;;1.65;1.23;;;17.30;54.40;;;;;;4707835;30;20047;-82
2021/05/13 00:11:01;;;;;;;2.08;1.27;;;17.30;54.50;;;;;;4755751;30;20124;-81
2021/05/13 00:13:28;;;;;;;1.70;0.98;;;17.30;54.50;;;;;;4750811;30;20490;-81
2021/05/13 00:15:54;;;;;;;1.20;1.08;;;17.20;54.50;;;;;;4743376;30;20032;-82
2021/05/13 00:18:20;;;;;;;1.92;1.10;;;17.20;54.60;;;;;;4750633;30;20140;-82
2021/05/13 00:20:46;;;;;;;2.17;1.13;;;17.10;54.60;;;;;;4711603;30;20130;-81
2021/05/13 00:23:12;;;;;;;1.50;1.15;;;17.10;54.70;;;;;;4742808;30;20394;-82
2021/05/13 00:25:38;;;;;;;1.95;1.20;;;17.10;54.80;;;;;;4749337;30;20056;-82
2021/05/13 00:28:04;;;;;;;1.30;1.00;;;17.00;54.70;;;;;;4764932;30;20040;-82
2021/05/13 00:30:30;;;;;;;1.10;1.00;;;17.00;55.40;;;;;;4753737;30;20092;-83
2021/05/13 00:32:56;;;;;;;1.33;1.10;;;17.00;54.80;;;;;;4752923;30;20036;-82
2021/05/13 00:35:23;;;;;;;1.63;1.25;;;16.90;54.90;;;;;;4738580;30;20056;-81
2021/05/13 00:37:49;;;;;;;1.83;1.00;;;16.90;54.90;;;;;;4752456;30;20031;-83
2021/05/13 00:40:17;;;;;;;1.33;1.00;;;16.90;55.00;;;;;;4763920;30;20031;-82
2021/05/13 00:42:43;;;;;;;1.17;0.90;;;16.80;55.00;;;;;;4753338;30;20051;-81
2021/05/13 00:45:11;;;;;;;1.77;0.93;;;16.80;55.00;;;;;;4762390;30;20032;-82
2021/05/13 00:47:44;;;;;;;2.85;1.10;;;16.80;55.10;;;;;;4723628;30;20036;-82
2021/05/13 00:50:11;;;;;;;1.60;1.00;;;16.80;55.10;;;;;;4754358;30;20044;-82
2021/05/13 00:52:36;;;;;;;1.45;1.13;;;16.70;55.10;;;;;;4745052;30;20036;-82
2021/05/13 00:55:03;;;;;;;1.25;0.90;;;16.70;55.20;;;;;;4741928;30;20040;-80
2021/05/13 00:57:31;;;;;;;1.25;1.02;;;16.70;55.20;;;;;;4750188;30;20045;-81
2021/05/13 01:00:01;;;;;;;0.70;0.70;;;16.70;55.30;;;;;;4751888;30;20111;-81
2021/05/13 01:02:27;;;;;;;1.63;1.10;;;16.60;55.20;;;;;;4740861;30;20227;-81
2021/05/13 01:04:53;;;;;;;1.50;1.10;;;16.50;55.20;;;;;;4765097;30;20478;-80
2021/05/13 01:07:19;;;;;;;0.93;0.90;;;16.50;55.30;;;;;;4730713;30;20029;-81
2021/05/13 01:09:45;;;;;;;0.90;0.90;;;16.50;55.40;;;;;;4740261;30;20504;-82
2021/05/13 01:12:17;;;;;;;1.23;1.00;;;16.50;55.40;;;;;;4752720;30;20044;-81
2021/05/13 01:14:45;;;;;;;1.20;1.00;;;16.40;55.40;;;;;;4749659;30;20043;-82
2021/05/13 01:19:47;;;;;;;1.52;1.10;;;16.40;55.50;;;;;;4753842;30;20044;-83
2021/05/13 01:22:14;;;;;;;2.35;1.13;;;16.40;55.60;;;;;;4737718;30;20070;-82
2021/05/13 01:24:40;;;;;;;1.65;1.25;;;16.40;55.60;;;;;;4749964;30;20036;-82
2021/05/13 01:27:06;;;;;;;1.88;1.30;;;16.30;55.60;;;;;;4757424;30;20045;-81
2021/05/13 01:29:33;;;;;;;2.58;1.20;;;16.30;55.60;;;;;;4756306;30;20513;-81
2021/05/13 01:31:59;;;;;;;1.58;1.20;;;16.30;55.70;;;;;;4753581;30;20131;-82
2021/05/13 01:34:25;;;;;;;1.15;1.05;;;16.30;55.80;;;;;;4760212;30;20035;-81
2021/05/13 01:36:51;;;;;;;2.13;1.33;;;16.20;55.70;;;;;;4753024;30;20044;-81
2021/05/13 01:39:17;;;;;;;2.20;1.30;;;16.20;55.80;;;;;;4752567;30;20036;-81
2021/05/13 01:41:43;;;;;;;2.35;1.10;;;16.20;55.90;;;;;;4753072;30;20082;-81
2021/05/13 01:44:10;;;;;;;2.58;1.45;;;16.10;55.90;;;;;;4750930;30;20122;-81
2021/05/13 01:46:37;;;;;;;1.88;1.08;;;16.10;55.90;;;;;;4757205;30;20032;-82
2021/05/13 01:49:05;;;;;;;1.63;1.10;;;16.10;56.00;;;;;;4762278;30;20059;-82
2021/05/13 01:51:31;;;;;;;1.35;1.20;;;16.00;56.00;;;;;;4740677;30;20078;-82
2021/05/13 01:53:57;;;;;;;1.63;1.20;;;16.00;56.00;;;;;;4764899;30;20046;-82
2021/05/13 01:56:23;;;;;;;2.70;1.30;;;16.00;56.10;;;;;;4751525;30;20036;-82
2021/05/13 01:58:48;;;;;;;1.90;1.42;;;15.90;56.10;;;;;;4755061;30;20428;-81
2021/05/13 02:01:15;;;;;;;2.17;1.20;;;15.90;56.10;;;;;;4756432;30;20048;-82
2021/05/13 02:03:43;;;;;;;1.88;1.33;;;15.90;56.20;;;;;;4722155;30;20071;-82
2021/05/13 02:06:10;;;;;;;2.67;1.35;;;15.90;56.20;;;;;;4759993;30;20024;-82
2021/05/13 02:08:37;;;;;;;2.17;1.23;;;15.90;56.30;;;;;;4755736;30;20126;-82
2021/05/13 02:11:03;;;;;;;2.03;1.02;;;15.90;56.30;;;;;;4763727;30;20039;-82
2021/05/13 02:13:29;;;;;;;2.58;1.42;;;15.80;56.30;;;;;;4765534;30;20036;-82
2021/05/13 02:15:55;;;;;;;2.05;1.33;;;15.80;56.30;;;;;;4755578;30;20115;-82
2021/05/13 02:18:21;;;;;;;1.67;1.20;;;15.80;56.40;;;;;;4734173;30;20781;-83
2021/05/13 02:20:48;;;;;;;1.55;1.10;;;15.70;56.40;;;;;;4756132;30;20115;-82
2021/05/13 02:23:15;;;;;;;2.28;1.20;;;15.70;56.50;;;;;;4755169;30;20169;-82
2021/05/13 02:25:46;;;;;;;1.67;0.90;;;15.70;56.50;;;;;;4765413;30;20104;-82
2021/05/13 02:28:13;;;;;;;1.98;1.20;;;15.70;56.60;;;;;;4756058;30;20063;-82
2021/05/13 02:30:38;;;;;;;2.45;1.40;;;15.60;56.50;;;;;;4755430;30;20051;-81
2021/05/13 02:33:05;;;;;;;3.08;1.40;;;15.60;56.60;;;;;;4751232;30;20039;-82
2021/05/13 02:35:30;;;;;;;1.42;1.20;;;15.60;56.70;;;;;;4772195;30;20031;-82
2021/05/13 02:37:57;;;;;;;2.58;1.50;;;15.60;56.70;;;;;;4752308;30;20047;-83
2021/05/13 02:40:23;;;;;;;2.33;1.30;;;15.50;56.70;;;;;;4752035;30;20901;-82
2021/05/13 02:42:50;;;;;;;1.40;1.30;;;15.50;56.70;;;;;;4755695;30;20097;-82
2021/05/13 02:45:16;;;;;;;1.95;1.23;;;15.50;56.80;;;;;;4720368;30;20039;-82
2021/05/13 02:47:43;;;;;;;2.05;1.35;;;15.50;56.80;;;;;;4761247;30;20440;-81
2021/05/13 02:50:11;;;;;;;1.67;1.20;;;15.40;56.80;;;;;;4754958;30;20028;-82
2021/05/13 02:52:37;;;;;;;1.65;1.30;;;15.40;56.80;;;;;;4742626;30;20047;-82
2021/05/13 02:55:05;;;;;;;1.38;1.20;;;15.40;56.90;;;;;;4754290;30;20047;-82
2021/05/13 02:57:30;;;;;;;1.92;1.33;;;15.40;56.90;;;;;;4740538;30;20034;-82
2021/05/13 03:00:03;;;;;;;1.77;1.23;;;15.30;57.00;;;;;;4753294;30;20035;-82
2021/05/13 03:02:30;;;;;;;1.58;1.25;;;15.40;57.00;;;;;;4747789;30;20054;-82
2021/05/13 03:04:55;;;;;;;2.00;1.42;;;15.30;57.00;;;;;;4752201;30;20788;-82
2021/05/13 03:07:21;;;;;;;2.63;1.40;;;15.30;57.00;;;;;;4736841;30;20119;-82
2021/05/13 03:09:54;;;;;;;2.33;1.25;;;15.30;57.00;;;;;;4750132;30;20032;-81
2021/05/13 03:12:20;;;;;;;4.32;1.73;;;15.20;57.10;;;;;;4762394;30;20480;-81
2021/05/13 03:14:46;;;;;;;1.70;1.27;;;15.20;57.10;;;;;;4736058;30;20057;-81
2021/05/13 03:17:12;;;;;;;1.40;1.30;;;15.20;57.20;;;;;;4747033;30;20036;-82
2021/05/13 03:19:46;;;;;;;2.22;1.52;;;15.10;57.10;;;;;;4736573;30;20020;-83
2021/05/13 03:22:16;;;;;;;1.50;1.35;;;15.10;57.20;;;;;;4749159;30;20047;-82
2021/05/13 03:24:54;;;;;;;1.38;1.27;;;15.10;57.20;;;;;;4750506;30;20040;-82
2021/05/13 03:30:07;;;;;;;1.95;1.33;;;15.00;57.20;;;;;;4752119;30;20067;-82
2021/05/13 03:32:32;;;;;;;1.20;1.10;;;15.00;57.20;;;;;;4761820;30;20585;-82
2021/05/13 03:34:58;;;;;;;1.58;1.40;;;15.00;57.30;;;;;;4715824;30;20040;-82
2021/05/13 03:37:27;;;;;;;1.95;1.30;;;15.00;57.40;;;;;;4751264;30;20040;-82
2021/05/13 03:39:54;;;;;;;2.65;1.40;;;15.00;57.40;;;;;;4761491;30;20044;-83
2021/05/13 03:42:21;;;;;;;2.00;1.20;;;14.90;57.40;;;;;;4751115;30;20085;-82
2021/05/13 03:44:48;;;;;;;2.33;1.40;;;14.90;57.40;;;;;;4751240;30;20040;-82
2021/05/13 03:47:13;;;;;;;1.58;1.40;;;14.90;57.50;;;;;;4750582;30;20034;-82
2021/05/13 03:49:39;;;;;;;1.55;1.30;;;14.90;57.50;;;;;;4749149;30;20398;-81
2021/05/13 03:52:05;;;;;;;2.00;1.60;;;14.90;57.50;;;;;;4751145;30;20510;-82
2021/05/13 03:54:31;;;;;;;1.88;1.40;;;14.80;57.50;;;;;;4751220;30;20048;-81
2021/05/13 03:56:57;;;;;;;1.80;1.42;;;14.80;57.50;;;;;;4722249;30;20032;-82
2021/05/13 03:59:23;;;;;;;2.33;1.60;;;14.80;57.60;;;;;;4750319;30;20051;-82
2021/05/13 04:02:02;;;;;;;3.50;1.63;;;14.80;57.60;;;;;;4745896;30;20113;-82
2021/05/13 04:04:28;;;;;;;1.73;1.50;;;14.70;57.60;;;;;;4752096;30;20071;-82
2021/05/13 04:06:54;;;;;;;2.40;1.50;;;14.70;57.60;;;;;;4725903;30;20064;-81
2021/05/13 04:09:19;;;;;;;2.35;1.55;;;14.70;57.60;;;;;;4730749;30;20043;-81
2021/05/13 04:11:45;;;;;;;1.83;1.55;;;14.70;57.70;;;;;;4766131;30;20047;-81
2021/05/13 04:14:11;;;;;;;3.00;1.67;;;14.60;57.60;;;;;;4739128;30;20416;-82
2021/05/13 04:16:40;;;;;;;2.25;1.50;;;14.60;57.70;;;;;;4721791;30;20036;-82
2021/05/13 04:19:06;;;;;;;1.70;1.48;;;14.60;57.70;;;;;;4768134;30;20047;-81
2021/05/13 04:21:32;;;;;;;2.70;1.67;;;14.60;57.70;;;;;;4746527;30;20036;-82
2021/05/13 04:23:58;;;;;;;1.70;1.40;;;14.60;57.80;;;;;;4749630;30;20040;-83
2021/05/13 04:26:24;;;;;;;1.52;1.38;;;14.50;57.80;;;;;;4745472;30;20059;-83
2021/05/13 04:28:50;;;;;;;2.33;1.45;;;14.50;57.80;;;;;;4763161;30;20038;-82
2021/05/13 04:31:17;;;;;;;1.38;1.25;;;14.50;57.80;;;;;;4752676;30;20092;-82
2021/05/13 04:33:42;;;;;;;2.25;1.60;;;14.50;57.90;;;;;;4744471;30;20032;-82
2021/05/13 04:36:08;;;;;;;3.03;1.83;;;14.50;57.90;;;;;;4750677;30;20105;-81
2021/05/13 04:38:34;;;;;;;2.47;1.75;;;14.50;58.60;;;;;;4751494;30;20544;-81
2021/05/13 04:41:00;;;;;;;3.05;1.80;;;14.40;57.90;;;;;;4751395;30;20076;-81
2021/05/13 04:43:36;;;;;;;2.60;1.77;;;14.40;58.00;;;;;;4759803;30;20040;-82
2021/05/13 04:46:02;;;;;;;3.03;1.98;;;14.40;58.10;;;;;;4758996;30;20090;-82
2021/05/13 04:48:40;;;;;;;2.00;1.65;;;14.40;58.00;;;;;;4766961;30;20032;-82
2021/05/13 04:51:05;;;;;;;1.95;1.65;;;14.30;58.00;;;;;;4740754;30;20559;-81
2021/05/13 04:53:31;;;;;;;2.70;1.80;;;14.40;58.10;;;;;;4763198;30;20062;-82
2021/05/13 04:55:57;;;;;;;2.67;1.65;;;14.30;58.10;;;;;;4751893;30;20402;-81
2021/05/13 04:58:23;;;;;;;3.50;1.98;;;14.30;58.10;;;;;;4750448;30;20052;-82
2021/05/13 05:00:49;;;;;;;2.53;1.90;;;14.40;58.20;;;;;;4758720;30;20501;-82
2021/05/13 05:03:15;;;;;;;2.72;1.90;;;14.30;58.20;;;;;;4770601;30;20051;-82
2021/05/13 05:05:41;;;;;;;2.67;1.75;;;14.30;58.20;;;;;;4757777;30;20095;-82
2021/05/13 05:08:07;;;;;;;2.72;1.98;;;14.30;58.20;;;;;;4754608;30;20475;-81
2021/05/13 05:10:33;;;;;;;2.72;1.90;;;14.30;58.30;;;;;;4756108;30;20043;-83
2021/05/13 05:12:58;;;;;;;2.10;1.88;;;14.30;58.30;;;;;;4753914;30;20036;-82
2021/05/13 05:15:24;;;;;;;2.70;2.00;;;14.30;58.30;;;;;;4753005;30;20044;-82
2021/05/13 05:17:50;;;;;;;2.58;1.90;;;14.30;58.30;;;;;;4763379;30;20112;-81
2021/05/13 05:20:16;;;;;;;3.03;1.90;;;14.30;58.30;;;;;;4765198;30;20046;-81
2021/05/13 05:22:42;;;;;;;2.88;2.08;;;14.20;58.30;;;;;;4722651;30;20048;-82
2021/05/13 05:25:08;;;;;;;2.50;2.00;;;14.30;58.30;;;;;;4763520;30;20555;-82
2021/05/13 05:27:34;;;;;;;3.22;2.20;;;14.20;58.30;;;;;;4756137;30;20066;-82
2021/05/13 05:30:00;;;;;;;2.97;2.00;;;14.30;58.40;;;;;;4742031;30;20036;-82
2021/05/13 05:32:26;;;;;;;2.78;1.83;;;14.20;58.30;;;;;;4755680;30;20117;-81
2021/05/13 05:34:52;;;;;;;2.80;2.20;;;14.20;58.40;;;;;;4752007;30;20040;-81
2021/05/13 05:37:17;;;;;;;2.33;2.03;;;14.20;58.40;;;;;;4754351;30;20031;-82
2021/05/13 05:39:43;;;;;;;2.78;2.00;;;14.20;58.40;;;;;;4750786;30;20063;-81
2021/05/13 05:42:09;;;;;;;3.40;2.03;;;14.30;58.40;;;;;;4739959;30;20497;-81
2021/05/13 05:44:34;;;;;;;3.40;2.38;;;14.20;58.40;;;;;;4741030;30;20036;-81
2021/05/13 05:47:00;;;;;;;3.58;2.30;;;14.20;58.50;;;;;;4755721;30;20506;-82
2021/05/13 05:49:26;;;;;;;2.75;2.17;;;14.20;58.40;;;;;;4715169;30;20637;-82
2021/05/13 05:51:52;;;;;;;2.92;2.17;;;14.20;58.50;;;;;;4720740;30;20075;-82
2021/05/13 05:54:17;;;;;;;3.13;2.28;;;14.20;58.50;;;;;;4773970;29;20118;-81
2021/05/13 05:56:43;;;;;;;2.28;2.08;;;14.30;58.60;;;;;;4750710;30;20070;-81
2021/05/13 05:59:09;;;;;;;4.05;2.33;;;14.30;58.50;;;;;;4741513;30;20055;-82
2021/05/13 06:01:37;;;;;;;2.45;2.05;;;14.30;58.50;;;;;;4755380;30;20040;-82
2021/05/13 06:04:04;;;;;;;2.92;2.10;;;14.30;58.60;;;;;;4718171;30;20479;-82
2021/05/13 06:06:30;;;;;;;3.30;2.10;;;14.30;58.60;;;;;;4755625;30;20533;-81
2021/05/13 06:08:56;;;;;;;2.47;2.28;;;14.30;58.60;;;;;;4736637;30;20040;-85
2021/05/13 06:11:22;;;;;;;3.13;2.38;;;14.30;58.60;;;;;;4741378;30;20036;-82
2021/05/13 06:13:47;;;;;;;2.70;2.25;;;14.30;58.60;;;;;;4759327;30;20036;-83
2021/05/13 06:16:13;;;;;;;2.40;2.15;;;14.30;58.60;;;;;;4747894;30;20556;-81
2021/05/13 06:18:53;;;;;;;2.33;2.10;;;14.30;58.50;;;;;;4769625;30;20581;-86
2021/05/13 06:21:19;;;;;;;3.40;2.25;;;14.30;58.60;;;;;;4753659;30;20032;-86
2021/05/13 06:23:53;;;;;;;3.08;2.33;;;14.30;58.50;;;;;;4748037;30;20036;-87
2021/05/13 06:26:29;;;;;;;3.50;2.40;;;14.30;58.60;;;;;;4753422;30;20048;-86
2021/05/13 06:28:55;;;;;;;3.08;2.50;;;14.30;58.60;;;;;;4751242;30;20031;-89
2021/05/13 06:31:21;;;;;;;3.17;2.42;;;14.30;58.60;;;;;;4751384;30;20371;-86
2021/05/13 06:33:47;;;;;;;3.72;2.70;;;14.30;58.60;;;;;;4761577;30;20453;-85
2021/05/13 06:36:13;;;;;;;3.35;2.50;;;14.30;58.70;;;;;;4766893;30;20044;-86
2021/05/13 06:38:39;;;;;;;3.50;2.60;;;14.40;58.70;;;;;;4759932;30;20033;-87
2021/05/13 06:41:07;;;;;;;3.70;2.67;;;14.40;58.60;;;;;;4753730;30;20135;-85
2021/05/13 06:43:36;;;;;;;3.97;2.50;;;14.40;58.70;;;;;;4757763;30;20036;-87
2021/05/13 06:46:04;;;;;;;3.20;2.53;;;14.40;58.70;;;;;;4768939;30;20036;-86
2021/05/13 06:48:30;;;;;;;3.17;2.50;;;14.40;58.70;;;;;;4753002;30;20043;-86
2021/05/13 06:50:56;;;;;;;3.70;2.70;;;14.40;58.70;;;;;;4743987;30;20055;-83
2021/05/13 06:53:21;;;;;;;4.40;3.08;;;14.40;58.70;;;;;;4722981;30;20467;-83
2021/05/13 06:55:51;;;;;;;4.22;2.80;;;14.50;58.80;;;;;;4752370;30;20071;-83
2021/05/13 06:58:19;;;;;;;3.67;2.85;;;14.50;58.80;;;;;;4735748;30;20028;-85
2021/05/13 07:00:44;;;;;;;4.25;3.20;;;14.50;58.90;;;;;;4746826;30;20028;-84
2021/05/13 07:03:10;;;;;;;4.20;3.17;;;14.50;58.90;;;;;;4763859;30;20403;-83
2021/05/13 07:05:36;;;;;;;3.97;3.10;;;14.50;58.90;;;;;;4756386;30;20438;-85
2021/05/13 07:08:05;;;;;;;3.50;2.72;;;14.50;58.90;;;;;;4757768;30;20052;-92
2021/05/13 07:10:34;;;;;;;4.32;2.95;;;14.50;59.00;;;;;;4763027;30;20035;-89
2021/05/13 07:13:00;;;;;;;4.03;3.30;;;14.50;59.00;;;;;;4758801;30;20070;-85
2021/05/13 07:15:26;;;;;;;4.28;3.40;;;14.50;58.90;;;;;;4770506;30;20060;-89
2021/05/13 07:17:52;;;;;;;4.50;3.28;;;14.50;59.00;;;;;;4764715;30;20462;-91
2021/05/13 07:20:32;;;;;;;4.63;3.47;;;14.60;59.10;;;;;;4759701;30;20047;-91
2021/05/13 07:23:05;;;;;;;5.55;3.53;;;14.60;59.20;;;;;;4770837;30;20039;-93
2021/05/13 07:25:41;;;;;;;;;;;14.60;59.20;;;;;;4753523;30;20482;-92
2021/05/13 07:28:15;;;;;;;3.17;2.53;;;14.60;59.00;;;;;;4763599;30;19929;-92
2021/05/13 07:30:43;;;;;;;4.55;3.30;;;14.70;59.00;;;;;;4753619;30;20032;-92
2021/05/13 07:33:09;;;;;;;5.00;3.75;;;14.60;59.20;;;;;;4755855;30;20023;-91
2021/05/13 07:35:38;;;;;;;4.97;3.60;;;14.70;59.30;;;;;;4761483;30;20522;-91
2021/05/13 07:38:04;;;;;;;4.68;3.58;;;14.70;59.40;;;;;;4752583;30;20139;-94
2021/05/13 07:40:50;;;;;;;5.03;3.53;;;14.70;59.40;;;;;;4754308;30;20387;-94
2021/05/13 07:43:18;;;;;;;4.57;3.55;;;14.70;59.40;;;;;;4755394;30;20032;-94
2021/05/13 07:45:54;;;;;;;5.40;3.83;;;14.70;59.40;;;;;;4754217;30;20036;-91
2021/05/13 07:48:22;;;;;;;5.13;3.80;;;14.80;59.40;;;;;;4770161;30;20114;-94
2021/05/13 07:50:50;;;;;;;4.70;3.30;;;14.90;59.50;;;;;;4769725;30;20112;-93
2021/05/13 07:53:26;;;;;;;5.45;3.97;;;14.90;59.40;;;;;;4751806;30;20059;-86
2021/05/13 07:55:52;;;;;;;5.18;3.83;;;14.90;59.40;;;;;;4749173;30;20092;-95
2021/05/13 07:58:25;;;;;;;5.32;4.22;;;15.00;59.40;;;;;;4763053;30;20024;-95
2021/05/13 08:00:51;;;;;;;5.28;3.85;;;15.10;59.30;;;;;;4754411;30;20054;-88
2021/05/13 08:03:17;;;;;;;5.22;4.38;;;15.10;59.20;;;;;;4756998;30;20032;-83
2021/05/13 08:05:43;;;;;;;6.68;4.93;;;15.10;59.50;;;;;;4744178;30;20096;-82
2021/05/13 08:08:09;;;;;;;7.10;5.45;;;15.20;60.20;;;;;;4767257;30;20031;-83
2021/05/13 08:10:35;;;;;;;8.65;6.97;;;15.30;60.90;;;;;;4753302;30;20047;-81
2021/05/13 08:13:00;;;;;;;10.65;7.15;;;15.40;61.60;;;;;;4766454;30;20035;-85
2021/05/13 08:15:26;;;;;;;9.95;7.00;;;15.50;62.10;;;;;;4762718;30;20036;-81
2021/05/13 08:17:52;;;;;;;9.55;7.50;;;15.60;62.40;;;;;;4752073;30;20059;-82
2021/05/13 08:20:19;;;;;;;8.43;6.90;;;15.70;62.40;;;;;;4765073;30;20035;-86
2021/05/13 08:22:49;;;;;;;8.13;7.07;;;15.80;62.30;;;;;;4739187;30;20048;-86
2021/05/13 08:25:19;;;;;;;9.77;7.63;;;15.90;62.20;;;;;;4744219;30;20029;-85
2021/05/13 08:27:47;;;;;;;8.13;7.07;;;15.90;62.00;;;;;;4755841;30;20066;-85
2021/05/13 08:30:13;;;;;;;8.40;7.18;;;16.00;61.80;;;;;;4744843;30;20040;-85
2021/05/13 08:32:39;;;;;;;8.55;6.65;;;16.10;61.60;;;;;;4750325;30;20046;-84
2021/05/13 08:35:05;;;;;;;8.85;7.15;;;16.20;61.40;;;;;;4750724;30;20035;-85
2021/05/13 08:37:31;;;;;;;8.10;7.03;;;16.30;61.20;;;;;;4753638;30;20040;-85
2021/05/13 08:39:56;;;;;;;11.38;7.28;;;16.30;61.00;;;;;;4736338;30;20024;-85
2021/05/13 08:42:22;;;;;;;9.40;7.15;;;16.40;60.80;;;;;;4736740;30;20040;-85
2021/05/13 08:44:49;;;;;;;7.88;6.43;;;16.50;60.70;;;;;;4754093;30;20440;-84
2021/05/13 08:47:15;;;;;;;8.93;6.57;;;16.60;60.60;;;;;;4760077;30;20147;-84
2021/05/13 08:49:43;;;;;;;7.85;6.78;;;16.70;60.40;;;;;;4751398;30;20126;-84
2021/05/13 08:52:13;;;;;;;7.70;6.50;;;16.70;60.30;;;;;;4757809;30;20047;-83
2021/05/13 08:54:53;;;;;;;8.05;6.55;;;16.80;60.20;;;;;;4752517;30;20036;-84
2021/05/13 08:57:20;;;;;;;7.60;6.20;;;16.90;60.20;;;;;;4753966;30;20040;-84
2021/05/13 08:59:46;;;;;;;7.25;6.40;;;17.00;59.90;;;;;;4771781;30;20428;-83
2021/05/13 09:02:12;;;;;;;8.00;6.40;;;17.10;59.80;;;;;;4745883;30;20047;-84
2021/05/13 09:04:42;;;;;;;6.85;5.97;;;17.20;59.70;;;;;;4751470;30;20135;-90
2021/05/13 09:07:16;;;;;;;7.75;6.20;;;17.30;59.70;;;;;;4758884;30;20131;-90
2021/05/13 09:10:19;;;;;;;7.63;6.22;;;17.40;59.60;;;;;;4764930;30;20035;-89
2021/05/13 09:12:53;;;;;;;6.75;5.68;;;17.50;59.50;;;;;;4735740;30;20581;-88
2021/05/13 09:15:28;;;;;;;7.13;5.87;;;17.60;59.20;;;;;;4769988;30;20478;-89
2021/05/13 09:17:56;;;;;;;6.38;5.63;;;17.70;59.10;;;;;;4760254;30;20297;-82
2021/05/13 09:20:29;;;;;;;7.05;5.68;;;17.80;59.00;;;;;;4754855;30;20039;-82
2021/05/13 09:23:14;;;;;;;7.00;5.85;;;17.90;58.90;;;;;;4758446;30;20474;-80
2021/05/13 09:26:04;;;;;;;;;;;18.00;59.00;;;;;;4762009;30;20045;-83
2021/05/13 09:28:29;;;;;;;5.65;4.72;;;18.00;58.60;;;;;;4752324;30;20008;-83
2021/05/13 09:30:55;;;;;;;6.43;5.05;;;18.20;58.40;;;;;;4763328;30;20146;-81
2021/05/13 09:33:31;;;;;;;6.40;5.13;;;18.30;58.50;;;;;;4765368;30;20032;-85
2021/05/13 09:36:16;;;;;;;6.35;5.18;;;18.40;58.60;;;;;;4768967;30;20028;-79
2021/05/13 09:38:42;;;;;;;;;;;18.50;58.50;;;;;;4741728;30;20048;-80
2021/05/13 09:41:09;;;;;;;5.55;4.75;;;18.60;58.30;;;;;;4752062;30;19928;-80
2021/05/13 09:43:34;;;;;;;5.68;4.70;;;18.70;58.10;;;;;;4767094;30;20402;-79
2021/05/13 09:46:03;;;;;;;5.93;4.80;;;18.80;58.10;;;;;;4750917;30;20034;-80
2021/05/13 09:48:39;;;;;;;6.10;4.68;;;18.90;58.10;;;;;;4769708;30;20093;-80
2021/05/13 09:51:25;;;;;;;5.85;4.75;;;19.00;58.20;;;;;;4755783;30;20031;-80
2021/05/13 09:54:12;;;;;;;5.85;4.70;;;19.10;58.20;;;;;;4755258;30;20462;-79
2021/05/13 09:56:40;;;;;;;5.85;4.93;;;19.20;58.10;;;;;;4755503;30;20042;-81
2021/05/13 09:59:27;;;;;;;5.70;4.55;;;19.30;58.10;;;;;;4755513;30;20043;-80
2021/05/13 10:01:59;;;;;;;6.20;4.68;;;19.40;58.20;;;;;;4755205;30;20046;-80
2021/05/13 10:04:26;;;;;;;6.13;4.72;;;19.50;57.90;;;;;;4771577;30;20036;-80
2021/05/13 10:06:52;;;;;;;5.55;4.60;;;19.60;57.80;;;;;;4769831;30;20035;-80
2021/05/13 10:09:19;;;;;;;4.80;4.30;;;19.70;57.70;;;;;;4749254;30;20127;-80
2021/05/13 10:11:58;;;;;;;5.65;4.57;;;19.80;57.60;;;;;;4752479;30;20036;-79
2021/05/13 10:14:26;;;;;;;4.97;3.97;;;20.00;57.60;;;;;;4760076;30;20559;-79
2021/05/13 10:17:03;;;;;;;4.47;3.90;;;20.10;57.60;;;;;;4759410;30;20040;-79
2021/05/13 10:19:39;;;;;;;4.93;3.95;;;20.20;57.60;;;;;;4743934;30;20385;-79
2021/05/13 10:22:07;;;;;;;4.40;3.33;;;20.30;57.40;;;;;;4755036;30;20071;-80
2021/05/13 10:24:32;;;;;;;4.30;3.50;;;20.40;57.20;;;;;;4754762;30;20125;-80
2021/05/13 10:26:58;;;;;;;4.25;3.63;;;20.50;57.20;;;;;;4766356;30;20091;-79
2021/05/13 10:29:25;;;;;;;4.85;3.70;;;20.60;57.10;;;;;;4769146;30;20509;-80
2021/05/13 10:32:00;;;;;;;4.15;3.38;;;20.60;56.90;;;;;;4769881;30;20040;-80
2021/05/13 10:34:41;;;;;;;4.45;3.30;;;20.80;57.00;;;;;;4769338;30;20042;-81
2021/05/13 10:37:19;;;;;;;4.65;3.45;;;20.80;56.90;;;;;;4769628;30;20031;-78
2021/05/13 10:40:25;;;;;;;4.18;3.40;;;21.00;56.90;;;;;;4769753;30;20119;-79
2021/05/13 10:42:59;;;;;;;3.42;2.70;;;21.10;56.90;;;;;;4770572;30;20040;-80
2021/05/13 10:45:25;;;;;;;3.35;2.83;;;21.20;56.70;;;;;;4754843;30;20453;-80
2021/05/13 10:48:27;;;;;;;4.15;2.80;;;21.30;56.70;;;;;;4757914;30;20068;-81
2021/05/13 10:51:04;;;;;;;3.42;2.63;;;21.40;56.80;;;;;;4758063;30;20135;-80
2021/05/13 10:53:33;;;;;;;4.18;2.90;;;21.50;56.70;;;;;;4752117;30;20416;-79
2021/05/13 10:56:27;;;;;;;4.32;3.22;;;21.60;56.80;;;;;;4736762;30;20386;-80
2021/05/13 10:59:02;;;;;;;3.45;2.47;;;21.70;56.90;;;;;;4758934;30;20486;-79
2021/05/13 11:01:34;;;;;;;5.30;2.92;;;21.80;56.60;;;;;;4758145;30;20372;-79
2021/05/13 11:04:21;;;;;;;3.78;2.90;;;21.90;56.50;;;;;;4761437;30;20039;-80
2021/05/13 11:07:00;;;;;;;3.45;2.38;;;22.00;56.60;;;;;;4756421;30;20027;-80
2021/05/13 11:09:38;;;;;;;3.42;2.70;;;22.10;56.30;;;;;;4770473;30;20032;-79
2021/05/13 11:12:32;;;;;;;3.03;2.35;;;22.20;56.30;;;;;;4757498;30;20396;-79
2021/05/13 11:18:01;;;;;;;3.65;2.40;;;22.40;56.10;;;;;;4769100;30;20031;-80
2021/05/13 11:20:36;;;;;;;2.35;2.05;;;22.40;56.10;;;;;;4754391;30;20064;-81
2021/05/13 11:23:21;;;;;;;2.88;2.20;;;22.60;56.10;;;;;;4773453;29;20376;-81
2021/05/13 11:25:57;;;;;;;3.03;2.30;;;22.60;56.10;;;;;;4764050;30;20031;-82
2021/05/13 11:28:31;;;;;;;3.30;2.28;;;22.70;56.00;;;;;;4753021;30;20087;-81
2021/05/13 11:31:15;;;;;;;2.30;2.00;;;22.80;55.90;;;;;;4780635;30;20567;-81
2021/05/13 11:33:56;;;;;;;2.25;2.05;;;22.90;55.90;;;;;;4769242;30;20043;-82
2021/05/13 11:36:29;;;;;;;2.53;2.08;;;23.00;55.90;;;;;;4757452;30;20049;-82
2021/05/13 11:39:00;;;;;;;2.55;1.90;;;23.10;55.70;;;;;;4743318;30;20071;-81
2021/05/13 11:41:26;;;;;;;3.00;2.20;;;23.10;55.70;;;;;;4753430;30;20093;-81
2021/05/13 11:43:53;;;;;;;2.75;2.30;;;23.20;55.70;;;;;;4754365;30;20111;-82
2021/05/13 11:46:22;;;;;;;2.22;1.83;;;23.30;55.80;;;;;;4738905;30;20048;-81
2021/05/13 11:48:49;;;;;;;2.53;2.10;;;23.30;55.70;;;;;;4745267;30;20148;-81
2021/05/13 11:51:20;;;;;;;3.25;2.20;;;23.40;56.30;;;;;;4768055;30;20065;-82
2021/05/13 11:53:46;;;;;;;2.30;1.83;;;23.50;55.70;;;;;;4736492;30;20533;-82
2021/05/13 11:56:14;;;;;;;2.08;1.60;;;23.60;55.60;;;;;;4736351;30;20024;-83
2021/05/13 11:59:13;;;;;;;3.08;1.88;;;23.60;55.50;;;;;;4752429;30;20392;-82
2021/05/13 12:01:45;;;;;;;2.05;1.70;;;23.70;55.60;;;;;;4755041;30;20028;-84
2021/05/13 12:04:16;;;;;;;2.13;1.88;;;23.70;55.40;;;;;;4768420;30;20130;-83
2021/05/13 12:06:55;;;;;;;2.42;1.55;;;23.80;55.40;;;;;;4768288;30;20031;-82
2021/05/13 12:09:22;;;;;;;2.80;1.98;;;23.90;55.40;;;;;;4759579;30;20543;-81
2021/05/13 12:11:52;;;;;;;2.92;2.00;;;23.90;55.30;;;;;;4750875;30;20122;-81
2021/05/13 12:14:29;;;;;;;2.67;1.73;;;24.00;55.30;;;;;;4765267;30;20028;-82
2021/05/13 12:16:58;;;;;;;2.38;1.77;;;24.10;55.40;;;;;;4766363;30;20114;-82
2021/05/13 12:19:26;;;;;;;2.45;1.70;;;24.10;55.30;;;;;;4769416;30;20462;-82
2021/05/13 12:21:57;;;;;;;1.77;1.60;;;24.20;55.30;;;;;;4757715;30;20044;-83
2021/05/13 12:24:41;;;;;;;3.88;2.15;;;24.20;55.00;;;;;;4750819;30;20052;-81
2021/05/13 12:27:10;;;;;;;2.70;1.98;;;24.30;54.90;;;;;;4750418;30;20573;-83
2021/05/13 12:29:40;;;;;;;3.00;1.90;;;24.40;54.70;;;;;;4767997;30;20039;-83
2021/05/13 12:32:06;;;;;;;3.03;1.63;;;24.40;54.60;;;;;;4753429;30;20064;-81
2021/05/13 12:34:42;;;;;;;2.60;1.77;;;24.50;54.50;;;;;;4769026;30;20640;-84
2021/05/13 12:37:21;;;;;;;2.58;1.90;;;24.60;54.40;;;;;;4758826;30;20036;-85
2021/05/13 12:39:47;;;;;;;2.33;1.98;;;24.60;54.20;;;;;;4733539;30;20028;-84
2021/05/13 12:42:27;;;;;;;2.00;1.80;;;24.70;54.10;;;;;;4735739;30;20094;-82
2021/05/13 12:45:15;;;;;;;4.07;1.80;;;24.80;54.10;;;;;;4750718;30;20119;-83
2021/05/13 12:47:42;;;;;;;3.38;1.83;;;24.80;54.20;;;;;;4750700;30;20044;-83
2021/05/13 12:50:08;;;;;;;2.03;1.50;;;24.90;54.00;;;;;;4735675;30;20055;-83
2021/05/13 12:52:34;;;;;;;3.13;2.03;;;24.90;54.00;;;;;;4750474;30;20044;-83
2021/05/13 12:55:14;;;;;;;2.90;1.73;;;25.00;54.00;;;;;;4739529;30;20027;-84
2021/05/13 12:57:45;;;;;;;2.72;1.80;;;25.00;54.00;;;;;;4769239;30;20032;-83
2021/05/13 13:00:12;;;;;;;2.58;1.75;;;25.10;53.90;;;;;;4735881;30;20044;-82
2021/05/13 13:02:38;;;;;;;2.38;1.65;;;25.10;53.70;;;;;;4760955;30;20040;-82
2021/05/13 13:05:07;;;;;;;4.50;2.10;;;25.20;53.70;;;;;;4752952;30;20032;-83
2021/05/13 13:07:40;;;;;;;3.15;2.10;;;25.20;53.60;;;;;;4768100;30;20381;-83